createdAt,value
2022-07-30T00:01:34.394Z,19.99
2022-07-30T00:04:03.074Z,19.87
2022-07-30T00:06:30.097Z,19.61
2022-07-30T00:08:56.770Z,19.49
2022-07-30T00:11:27.340Z,19.48
2022-07-30T00:13:54.644Z,19.48
2022-07-30T00:16:21.760Z,19.48
2022-07-30T00:18:48.503Z,19.39
2022-07-30T00:21:20.197Z,19.51
2022-07-30T00:24:02.520Z,19.28
2022-07-30T00:26:29.369Z,19.29
2022-07-30T00:28:56.657Z,19.34
2022-07-30T00:31:23.322Z,19.09
2022-07-30T00:33:50.021Z,19.28
2022-07-30T00:36:16.928Z,19.15
2022-07-30T00:38:43.702Z,18.98
2022-07-30T00:41:10.500Z,18.87
2022-07-30T00:43:37.237Z,18.80
2022-07-30T00:46:04.182Z,18.71
2022-07-30T00:48:31.032Z,18.71
2022-07-30T00:50:57.798Z,18.62
2022-07-30T00:53:24.591Z,18.72
2022-07-30T00:55:51.482Z,18.63
2022-07-30T00:58:18.181Z,18.64
2022-07-30T01:00:45.120Z,18.60
2022-07-30T01:03:11.860Z,18.52
2022-07-30T01:05:38.468Z,18.64
2022-07-30T01:08:05.075Z,18.68
2022-07-30T01:10:31.719Z,18.57
2022-07-30T01:12:59.306Z,18.60
2022-07-30T01:15:27.105Z,18.36
2022-07-30T01:17:56.885Z,18.45
2022-07-30T01:20:28.853Z,18.31
2022-07-30T01:23:08.244Z,18.26
2022-07-30T01:25:56.220Z,18.49
2022-07-30T01:28:31.349Z,18.36
2022-07-30T01:30:59.201Z,18.48
2022-07-30T01:33:27.909Z,18.35
2022-07-30T01:35:56.835Z,18.38
2022-07-30T01:38:25.639Z,18.40
2022-07-30T01:40:54.757Z,18.27
2022-07-30T01:43:24.064Z,18.34
2022-07-30T01:45:53.238Z,18.41
2022-07-30T01:48:22.417Z,18.20
2022-07-30T01:50:52.728Z,18.24
2022-07-30T01:53:24.032Z,18.24
2022-07-30T01:55:51.987Z,18.24
2022-07-30T01:58:21.741Z,18.06
2022-07-30T02:00:50.873Z,18.18
2022-07-30T02:03:18.396Z,18.04
2022-07-30T02:05:52.539Z,18.07
2022-07-30T02:08:35.227Z,18.06
2022-07-30T02:11:07.615Z,17.96
2022-07-30T02:13:43.680Z,17.91
2022-07-30T02:16:31.702Z,17.91
2022-07-30T02:19:06.776Z,17.92
2022-07-30T02:21:37.856Z,17.86
2022-07-30T02:24:18.397Z,17.89
2022-07-30T02:26:49.610Z,17.83
2022-07-30T02:29:18.509Z,17.76
2022-07-30T02:31:45.875Z,17.67
2022-07-30T02:34:14.115Z,17.67
2022-07-30T02:36:43.384Z,17.62
2022-07-30T02:39:15.061Z,17.43
2022-07-30T02:41:49.232Z,17.58
2022-07-30T02:44:20.352Z,17.53
2022-07-30T02:46:49.499Z,17.51
2022-07-30T02:49:19.623Z,17.38
2022-07-30T02:51:48.396Z,17.23
2022-07-30T02:54:17.874Z,17.23
2022-07-30T02:56:47.803Z,17.12
2022-07-30T02:59:16.399Z,16.98
2022-07-30T03:01:44.229Z,17.08
2022-07-30T03:04:12.061Z,16.96
2022-07-30T03:06:40.491Z,16.92
2022-07-30T03:09:09.931Z,16.76
2022-07-30T03:11:37.187Z,16.91
2022-07-30T03:14:03.952Z,16.85
2022-07-30T03:16:33.649Z,16.81
2022-07-30T03:19:02.738Z,16.83
2022-07-30T03:21:35.763Z,16.71
2022-07-30T03:24:05.156Z,16.58
2022-07-30T03:26:33.761Z,16.77
2022-07-30T03:29:01.605Z,16.72
2022-07-30T03:31:36.524Z,16.53
2022-07-30T03:34:06.500Z,16.84
2022-07-30T03:36:35.041Z,16.75
2022-07-30T03:39:03.273Z,16.76
2022-07-30T03:41:31.304Z,16.50
2022-07-30T03:43:59.856Z,16.78
2022-07-30T03:46:27.943Z,16.59
2022-07-30T03:48:55.278Z,16.57
2022-07-30T03:51:22.248Z,16.53
2022-07-30T03:53:51.620Z,16.59
2022-07-30T03:56:18.541Z,16.68
2022-07-30T03:58:45.496Z,16.60
2022-07-30T04:01:12.544Z,16.65
2022-07-30T04:03:39.542Z,16.54
2022-07-30T04:06:06.479Z,16.68
2022-07-30T04:08:33.216Z,16.54
2022-07-30T04:10:59.873Z,16.69
2022-07-30T04:13:26.507Z,16.65
2022-07-30T04:16:40.882Z,16.49
2022-07-30T04:18:53.740Z,16.48
2022-07-30T04:21:23.225Z,16.48
2022-07-30T04:24:04.474Z,16.60
2022-07-30T04:26:36.949Z,16.34
2022-07-30T04:29:07.315Z,16.53
2022-07-30T04:31:38.474Z,16.48
2022-07-30T04:34:08.102Z,16.57
2022-07-30T04:36:35.935Z,16.61
2022-07-30T04:39:04.138Z,16.55
2022-07-30T04:41:35.419Z,16.44
2022-07-30T04:44:16.392Z,16.50
2022-07-30T04:46:43.106Z,16.22
2022-07-30T04:49:11.630Z,16.43
2022-07-30T04:51:38.694Z,16.39
2022-07-30T04:54:09.005Z,16.34
2022-07-30T04:56:50.192Z,16.25
2022-07-30T04:59:23.714Z,16.41
2022-07-30T05:01:52.521Z,16.55
2022-07-30T05:04:22.653Z,16.70
2022-07-30T05:06:50.061Z,16.54
2022-07-30T05:09:17.679Z,16.67
2022-07-30T05:11:51.328Z,16.59
2022-07-30T05:14:18.010Z,16.79
2022-07-30T05:16:44.651Z,16.87
2022-07-30T05:19:11.924Z,16.86
2022-07-30T05:21:38.580Z,16.86
2022-07-30T05:24:06.191Z,16.86
2022-07-30T05:26:33.026Z,16.97
2022-07-30T05:28:59.691Z,17.02
2022-07-30T05:31:26.426Z,17.20
2022-07-30T05:33:57.530Z,17.25
2022-07-30T05:36:27.096Z,17.26
2022-07-30T05:38:53.783Z,17.55
2022-07-30T05:41:32.235Z,17.56
2022-07-30T05:44:00.809Z,17.71
2022-07-30T05:46:28.058Z,17.54
2022-07-30T05:48:54.777Z,17.87
2022-07-30T05:51:22.305Z,17.74
2022-07-30T05:53:49.348Z,17.89
2022-07-30T05:56:16.445Z,17.71
2022-07-30T05:58:43.539Z,18.04
2022-07-30T06:01:10.258Z,18.20
2022-07-30T06:03:38.734Z,18.22
2022-07-30T06:06:05.723Z,18.30
2022-07-30T06:08:32.479Z,18.31
2022-07-30T06:10:59.331Z,18.51
2022-07-30T06:13:26.105Z,18.26
2022-07-30T06:15:52.910Z,18.30
2022-07-30T06:18:19.920Z,18.56
2022-07-30T06:20:54.496Z,18.53
2022-07-30T06:23:21.934Z,18.58
2022-07-30T06:25:49.003Z,18.57
2022-07-30T06:28:36.432Z,18.93
2022-07-30T06:31:03.491Z,19.03
2022-07-30T06:33:30.224Z,19.02
2022-07-30T06:35:56.838Z,19.41
2022-07-30T06:38:23.485Z,19.62
2022-07-30T06:40:50.264Z,19.65
2022-07-30T06:43:19.066Z,19.74
2022-07-30T06:45:45.752Z,20.11
2022-07-30T06:48:12.415Z,20.25
2022-07-30T06:50:39.049Z,20.54
2022-07-30T06:53:05.586Z,20.74
2022-07-30T06:55:32.143Z,21.06
2022-07-30T06:57:58.834Z,21.20
2022-07-30T07:00:25.533Z,21.35
2022-07-30T07:02:52.074Z,21.47
2022-07-30T07:05:18.889Z,21.56
2022-07-30T07:07:56.581Z,21.69
2022-07-30T07:10:25.841Z,21.96
2022-07-30T07:12:52.528Z,22.05
2022-07-30T07:15:19.341Z,22.14
2022-07-30T07:17:49.145Z,22.20
2022-07-30T07:20:15.781Z,22.35
2022-07-30T07:22:42.343Z,22.45
2022-07-30T07:25:09.232Z,22.51
2022-07-30T07:27:37.239Z,22.49
2022-07-30T07:30:06.219Z,22.41
2022-07-30T07:32:34.663Z,22.54
2022-07-30T07:35:01.728Z,22.74
2022-07-30T07:37:28.381Z,22.90
2022-07-30T07:39:54.971Z,23.04
2022-07-30T07:42:22.200Z,23.24
2022-07-30T07:44:48.899Z,23.32
2022-07-30T07:47:15.534Z,23.41
2022-07-30T07:49:42.237Z,23.57
2022-07-30T07:52:09.215Z,23.74
2022-07-30T07:54:36.223Z,23.97
2022-07-30T07:57:10.515Z,24.12
2022-07-30T07:59:41.462Z,24.38
2022-07-30T08:02:08.939Z,24.38
2022-07-30T08:04:36.707Z,24.76
2022-07-30T08:07:04.391Z,24.85
2022-07-30T08:09:42.637Z,25.16
2022-07-30T08:12:12.294Z,25.46
2022-07-30T08:14:39.201Z,25.91
2022-07-30T08:17:06.377Z,26.11
2022-07-30T08:19:34.071Z,26.34
2022-07-30T08:22:00.741Z,26.53
2022-07-30T08:24:27.559Z,26.67
2022-07-30T08:26:54.439Z,26.85
2022-07-30T08:29:21.245Z,27.20
2022-07-30T08:31:50.644Z,27.51
2022-07-30T08:34:18.202Z,27.84
2022-07-30T08:36:44.978Z,28.28
2022-07-30T08:39:14.369Z,28.55
2022-07-30T08:41:42.412Z,28.50
2022-07-30T08:44:13.096Z,28.48
2022-07-30T08:46:42.525Z,28.48
2022-07-30T08:49:16.039Z,28.54
2022-07-30T08:51:42.786Z,28.93
2022-07-30T08:54:10.029Z,29.37
2022-07-30T08:56:37.260Z,29.76
2022-07-30T08:59:04.466Z,30.02
2022-07-30T09:01:31.044Z,30.36
2022-07-30T09:03:57.919Z,30.70
2022-07-30T09:06:24.615Z,30.97
2022-07-30T09:08:51.185Z,31.03
2022-07-30T09:11:17.842Z,31.38
2022-07-30T09:13:45.121Z,31.77
2022-07-30T09:16:24.058Z,32.09
2022-07-30T09:18:51.879Z,32.33
2022-07-30T09:21:27.462Z,32.52
2022-07-30T09:23:58.130Z,32.66
2022-07-30T09:26:25.305Z,33.01
2022-07-30T09:28:52.840Z,33.36
2022-07-30T09:31:20.726Z,33.59
2022-07-30T09:33:47.967Z,33.88
2022-07-30T09:36:17.312Z,34.17
2022-07-30T09:38:53.915Z,34.51
2022-07-30T09:41:39.815Z,34.93
2022-07-30T09:44:07.347Z,35.17
2022-07-30T09:46:51.916Z,35.45
2022-07-30T09:49:21.187Z,35.37
2022-07-30T09:51:56.663Z,35.19
2022-07-30T09:54:51.163Z,35.04
2022-07-30T09:57:26.538Z,35.24
2022-07-30T09:59:59.932Z,35.92
2022-07-30T10:02:32.520Z,36.48
2022-07-30T10:05:15.624Z,36.76
2022-07-30T10:08:02.587Z,37.12
2022-07-30T10:10:31.716Z,37.42
2022-07-30T10:13:04.458Z,37.60
2022-07-30T10:15:38.038Z,37.38
2022-07-30T10:18:06.694Z,36.94
2022-07-30T10:20:35.634Z,35.99
2022-07-30T10:23:07.786Z,35.66
2022-07-30T10:25:49.676Z,36.00
2022-07-30T10:28:24.087Z,36.37
2022-07-30T10:30:56.090Z,36.80
2022-07-30T10:33:35.187Z,36.71
2022-07-30T10:36:04.947Z,36.22
2022-07-30T10:38:39.079Z,35.97
2022-07-30T10:41:44.541Z,36.38
2022-07-30T10:44:40.718Z,36.56
2022-07-30T10:47:14.098Z,36.12
2022-07-30T10:49:43.323Z,36.37
2022-07-30T10:52:10.848Z,36.55
2022-07-30T10:54:45.254Z,36.85
2022-07-30T10:57:22.584Z,36.50
2022-07-30T11:00:03.939Z,36.66
2022-07-30T11:02:35.401Z,37.42
2022-07-30T11:05:17.791Z,37.98
2022-07-30T11:07:47.365Z,37.51
2022-07-30T11:10:37.539Z,37.62
2022-07-30T11:13:09.682Z,38.20
2022-07-30T11:16:08.789Z,38.71
2022-07-30T11:19:56.707Z,39.21
2022-07-30T11:22:44.471Z,39.50
2022-07-30T11:25:50.212Z,38.95
2022-07-30T11:28:40.974Z,37.77
2022-07-30T11:31:30.599Z,38.23
2022-07-30T11:34:20.347Z,38.62
2022-07-30T11:37:19.130Z,39.24
2022-07-30T11:39:55.277Z,39.18
2022-07-30T11:42:29.021Z,39.55
2022-07-30T11:45:18.141Z,39.78
2022-07-30T11:47:50.190Z,39.17
2022-07-30T11:50:27.545Z,38.69
2022-07-30T11:53:02.191Z,38.24
2022-07-30T11:55:38.936Z,37.02
2022-07-30T11:58:08.703Z,36.84
2022-07-30T12:00:41.185Z,37.24
2022-07-30T12:03:11.476Z,38.10
2022-07-30T12:05:38.887Z,38.96
2022-07-30T12:08:06.287Z,39.17
2022-07-30T12:10:35.974Z,39.67
2022-07-30T12:13:16.543Z,39.31
2022-07-30T12:15:46.224Z,39.07
2022-07-30T12:18:29.473Z,39.08
2022-07-30T12:21:16.323Z,39.11
2022-07-30T12:24:10.344Z,39.41
2022-07-30T12:26:37.214Z,39.39
2022-07-30T12:29:13.625Z,39.57
2022-07-30T12:31:41.647Z,39.99
2022-07-30T12:34:25.265Z,39.88
2022-07-30T12:36:53.038Z,39.73
2022-07-30T12:39:25.269Z,39.42
2022-07-30T12:41:53.843Z,39.99
2022-07-30T12:44:40.753Z,40.05
2022-07-30T12:47:20.351Z,40.55
2022-07-30T12:49:49.884Z,40.81
2022-07-30T12:52:41.417Z,41.14
2022-07-30T12:55:11.566Z,40.57
2022-07-30T12:58:07.621Z,40.47
2022-07-30T13:00:44.157Z,40.30
2022-07-30T13:03:27.947Z,40.06
2022-07-30T13:05:56.552Z,40.43
2022-07-30T13:08:51.210Z,40.82
2022-07-30T13:11:19.912Z,41.24
2022-07-30T13:13:47.692Z,41.46
2022-07-30T13:16:14.845Z,41.81
2022-07-30T13:18:42.211Z,41.83
2022-07-30T13:21:09.362Z,41.63
2022-07-30T13:23:36.976Z,41.83
2022-07-30T13:26:03.961Z,41.94
2022-07-30T13:28:32.062Z,42.15
2022-07-30T13:30:58.953Z,42.35
2022-07-30T13:33:25.920Z,42.58
2022-07-30T13:35:52.921Z,42.97
2022-07-30T13:38:19.604Z,43.17
2022-07-30T13:40:46.210Z,42.92
2022-07-30T13:43:12.815Z,42.18
2022-07-30T13:45:39.434Z,42.06
2022-07-30T13:48:06.330Z,42.10
2022-07-30T13:50:33.744Z,41.87
2022-07-30T13:53:02.489Z,41.85
2022-07-30T13:55:29.937Z,41.87
2022-07-30T13:57:57.136Z,42.24
2022-07-30T14:00:24.705Z,41.98
2022-07-30T14:02:51.638Z,41.65
2022-07-30T14:05:18.345Z,40.88
2022-07-30T14:07:45.144Z,40.96
2022-07-30T14:10:13.180Z,41.31
2022-07-30T14:12:40.148Z,41.52
2022-07-30T14:15:07.557Z,41.49
2022-07-30T14:17:34.402Z,41.25
2022-07-30T14:20:01.298Z,41.21
2022-07-30T14:22:28.032Z,40.71
2022-07-30T14:24:54.923Z,40.61
2022-07-30T14:27:21.716Z,40.83
2022-07-30T14:29:48.889Z,41.13
2022-07-30T14:32:18.656Z,41.13
2022-07-30T14:34:49.501Z,40.23
2022-07-30T14:37:16.943Z,39.48
2022-07-30T14:39:43.984Z,39.45
2022-07-30T14:42:11.316Z,39.82
2022-07-30T14:44:37.980Z,39.75
2022-07-30T14:47:05.373Z,38.80
2022-07-30T14:49:32.236Z,37.34
2022-07-30T14:51:59.075Z,36.98
2022-07-30T14:54:27.879Z,37.21
2022-07-30T14:56:58.201Z,37.95
2022-07-30T14:59:27.542Z,38.49
2022-07-30T15:01:55.488Z,38.91
2022-07-30T15:04:23.112Z,39.26
2022-07-30T15:06:49.930Z,39.47
2022-07-30T15:09:21.492Z,39.63
2022-07-30T15:12:23.686Z,39.65
2022-07-30T15:14:38.123Z,39.04
2022-07-30T15:17:06.069Z,38.89
2022-07-30T15:19:33.942Z,38.57
2022-07-30T15:22:02.400Z,38.40
2022-07-30T15:24:30.451Z,38.44
2022-07-30T15:26:57.214Z,38.34
2022-07-30T15:29:24.355Z,38.33
2022-07-30T15:31:55.649Z,38.53
2022-07-30T15:34:22.525Z,38.74
2022-07-30T15:36:49.179Z,38.70
2022-07-30T15:39:15.831Z,38.58
2022-07-30T15:41:42.689Z,38.23
2022-07-30T15:44:09.271Z,38.07
2022-07-30T15:46:36.169Z,38.18
2022-07-30T15:49:03.359Z,38.16
2022-07-30T15:51:32.634Z,38.05
2022-07-30T15:53:59.820Z,37.73
2022-07-30T15:56:28.634Z,37.04
2022-07-30T15:58:58.771Z,36.93
2022-07-30T16:01:25.706Z,36.62
2022-07-30T16:03:54.724Z,36.28
2022-07-30T16:06:21.641Z,36.27
2022-07-30T16:08:48.323Z,36.33
2022-07-30T16:11:14.883Z,36.51
2022-07-30T16:13:42.749Z,36.61
2022-07-30T16:16:09.373Z,36.30
2022-07-30T16:18:35.949Z,36.19
2022-07-30T16:21:02.664Z,36.21
2022-07-30T16:23:36.261Z,36.16
2022-07-30T16:26:03.847Z,36.17
2022-07-30T16:28:31.064Z,36.19
2022-07-30T16:30:58.365Z,36.17
2022-07-30T16:33:25.027Z,35.97
2022-07-30T16:35:54.992Z,35.92
2022-07-30T16:38:23.271Z,35.72
2022-07-30T16:40:50.675Z,35.59
2022-07-30T16:43:19.722Z,35.22
2022-07-30T16:45:47.255Z,34.85
2022-07-30T16:48:14.057Z,34.54
2022-07-30T16:50:42.291Z,34.62
2022-07-30T16:53:13.784Z,34.49
2022-07-30T16:55:41.807Z,34.58
2022-07-30T16:58:09.312Z,34.45
2022-07-30T17:00:37.059Z,34.50
2022-07-30T17:03:04.129Z,34.43
2022-07-30T17:05:31.128Z,34.35
2022-07-30T17:07:58.379Z,34.34
2022-07-30T17:10:26.681Z,34.26
2022-07-30T17:12:57.050Z,34.05
2022-07-30T17:15:32.241Z,33.96
2022-07-30T17:18:03.135Z,33.90
2022-07-30T17:20:30.563Z,33.68
2022-07-30T17:22:57.517Z,33.47
2022-07-30T17:25:27.952Z,33.41
2022-07-30T17:27:58.538Z,33.42
2022-07-30T17:30:27.417Z,33.37
2022-07-30T17:32:54.206Z,33.21
2022-07-30T17:35:21.310Z,33.14
2022-07-30T17:37:48.020Z,33.15
2022-07-30T17:40:27.454Z,32.99
2022-07-30T17:43:03.520Z,32.85
2022-07-30T17:45:31.163Z,32.31
2022-07-30T17:47:58.018Z,32.30
2022-07-30T17:50:24.888Z,32.22
2022-07-30T17:52:51.614Z,32.09
2022-07-30T17:55:18.372Z,31.82
2022-07-30T17:57:45.135Z,31.75
2022-07-30T18:00:12.749Z,31.61
2022-07-30T18:02:39.503Z,31.50
2022-07-30T18:05:06.781Z,31.23
2022-07-30T18:07:33.497Z,31.03
2022-07-30T18:10:00.237Z,31.08
2022-07-30T18:12:27.073Z,30.87
2022-07-30T18:14:55.160Z,30.70
2022-07-30T18:17:21.959Z,30.43
2022-07-30T18:19:48.833Z,30.35
2022-07-30T18:22:16.026Z,30.18
2022-07-30T18:24:55.114Z,30.04
2022-07-30T18:27:21.943Z,29.93
2022-07-30T18:29:48.785Z,29.82
2022-07-30T18:32:15.710Z,29.64
2022-07-30T18:34:42.418Z,29.52
2022-07-30T18:37:10.227Z,29.40
2022-07-30T18:39:37.090Z,29.27
2022-07-30T18:42:04.452Z,29.21
2022-07-30T18:44:31.701Z,29.13
2022-07-30T18:46:58.663Z,28.98
2022-07-30T18:49:40.884Z,28.86
2022-07-30T18:52:08.053Z,28.83
2022-07-30T18:54:35.975Z,28.75
2022-07-30T18:57:02.682Z,28.69
2022-07-30T18:59:29.536Z,28.51
2022-07-30T19:01:56.169Z,28.48
2022-07-30T19:04:22.864Z,28.38
2022-07-30T19:06:49.514Z,28.24
2022-07-30T19:09:17.876Z,28.16
2022-07-30T19:11:47.986Z,28.11
2022-07-30T19:14:15.353Z,27.97
2022-07-30T19:16:44.052Z,27.85
2022-07-30T19:19:13.566Z,27.73
2022-07-30T19:21:40.733Z,27.70
2022-07-30T19:24:07.456Z,27.62
2022-07-30T19:26:34.143Z,27.58
2022-07-30T19:29:00.727Z,27.44
2022-07-30T19:31:27.321Z,27.47
2022-07-30T19:33:53.884Z,27.45
2022-07-30T19:36:23.288Z,27.39
2022-07-30T19:38:50.373Z,27.38
2022-07-30T19:41:17.042Z,27.34
2022-07-30T19:43:55.763Z,27.28
2022-07-30T19:46:25.277Z,27.23
2022-07-30T19:48:52.185Z,27.17
2022-07-30T19:51:20.523Z,27.13
2022-07-30T19:53:48.193Z,27.09
2022-07-30T19:56:14.956Z,27.05
2022-07-30T19:58:42.765Z,26.98
2022-07-30T20:01:14.419Z,26.98
2022-07-30T20:03:42.064Z,26.89
2022-07-30T20:06:15.397Z,26.85
2022-07-30T20:08:44.727Z,26.68
2022-07-30T20:11:14.064Z,26.67
2022-07-30T20:13:49.309Z,26.55
2022-07-30T20:16:17.513Z,26.43
2022-07-30T20:18:46.273Z,26.19
2022-07-30T20:21:15.593Z,26.14
2022-07-30T20:23:44.726Z,26.08
2022-07-30T20:26:16.876Z,26.02
2022-07-30T20:28:52.381Z,26.04
2022-07-30T20:31:19.685Z,25.89
2022-07-30T20:33:49.478Z,25.87
2022-07-30T20:36:18.121Z,25.72
2022-07-30T20:38:47.130Z,25.58
2022-07-30T20:41:14.673Z,25.53
2022-07-30T20:43:45.847Z,25.51
2022-07-30T20:46:13.839Z,25.33
2022-07-30T20:48:42.270Z,25.32
2022-07-30T20:51:11.683Z,25.23
2022-07-30T20:53:38.301Z,25.10
2022-07-30T20:56:05.078Z,24.99
2022-07-30T20:58:31.638Z,24.93
2022-07-30T21:01:00.598Z,24.77
2022-07-30T21:03:31.695Z,24.62
2022-07-30T21:05:58.852Z,24.66
2022-07-30T21:08:26.582Z,24.60
2022-07-30T21:10:53.509Z,24.57
2022-07-30T21:13:22.344Z,24.48
2022-07-30T21:16:01.916Z,24.25
2022-07-30T21:18:30.864Z,24.24
2022-07-30T21:20:57.749Z,24.24
2022-07-30T21:23:25.160Z,24.13
2022-07-30T21:26:00.393Z,23.93
2022-07-30T21:28:29.574Z,23.77
2022-07-30T21:30:57.211Z,23.76
2022-07-30T21:33:24.465Z,23.70
2022-07-30T21:35:57.932Z,23.63
2022-07-30T21:38:26.592Z,23.55
2022-07-30T21:40:53.542Z,23.54
2022-07-30T21:43:29.477Z,23.40
2022-07-30T21:46:00.122Z,23.31
2022-07-30T21:48:30.577Z,23.33
2022-07-30T21:50:58.413Z,23.33
2022-07-30T21:53:30.014Z,23.26
2022-07-30T21:56:12.335Z,23.37
2022-07-30T21:58:38.993Z,23.27
2022-07-30T22:01:20.173Z,23.21
2022-07-30T22:04:02.872Z,23.25
2022-07-30T22:06:35.342Z,23.21
2022-07-30T22:09:18.087Z,23.14
2022-07-30T22:11:46.504Z,23.11
2022-07-30T22:14:13.700Z,23.00
2022-07-30T22:19:29.204Z,22.81
2022-07-30T22:21:55.810Z,22.87
2022-07-30T22:24:29.431Z,22.82
2022-07-30T22:26:57.024Z,22.78
2022-07-30T22:29:27.667Z,22.83
2022-07-30T22:32:03.390Z,22.69
2022-07-30T22:34:30.695Z,22.68
2022-07-30T22:36:57.759Z,22.63
2022-07-30T22:39:32.804Z,22.56
2022-07-30T22:42:12.546Z,22.41
2022-07-30T22:44:39.448Z,22.33
2022-07-30T22:47:21.239Z,22.30
2022-07-30T22:49:59.029Z,22.42
2022-07-30T22:52:29.129Z,22.24
2022-07-30T22:54:58.724Z,22.28
2022-07-30T22:57:37.788Z,22.11
2022-07-30T23:00:07.275Z,22.17
2022-07-30T23:02:38.853Z,22.09
2022-07-30T23:05:06.578Z,22.04
2022-07-30T23:07:38.830Z,21.97
2022-07-30T23:10:16.966Z,21.97
2022-07-30T23:12:32.859Z,23.02
2022-07-30T23:12:47.283Z,21.86
2022-07-30T23:15:14.807Z,21.87
2022-07-30T23:17:41.614Z,21.69
2022-07-30T23:20:11.054Z,21.68
2022-07-30T23:22:38.174Z,21.80
2022-07-30T23:25:06.858Z,21.80
2022-07-30T23:27:34.143Z,21.68
2022-07-30T23:30:00.714Z,21.59
2022-07-30T23:32:27.404Z,21.40
2022-07-30T23:34:54.087Z,21.32
2022-07-30T23:37:20.755Z,21.41
2022-07-30T23:39:47.345Z,21.27
2022-07-30T23:42:14.021Z,21.17
2022-07-30T23:44:40.807Z,21.18
2022-07-30T23:47:07.455Z,21.10
2022-07-30T23:49:34.055Z,21.15
2022-07-30T23:52:00.602Z,21.17
2022-07-30T23:54:28.868Z,21.19
2022-07-30T23:56:56.351Z,21.20
2022-07-30T23:59:36.945Z,21.22
